Time;durP1;ratioP1;P1;durP2;ratioP2;P2;SDS_P1;SDS_P2;PMS_P1;PMS_P2;Temp;Humidity;BMP_temperature;BMP_pressure;BME280_temperature;BME280_humidity;BME280_pressure;Samples;Min_cycle;Max_cycle;Signal;HPM_P1;HPM_P2
2023/06/30 00:01:23;;;;;;;;;;;19.60;99.90;;;;;;5020217;28;19925;-62
2023/06/30 00:03:55;;;;;;;;;;;19.60;99.90;;;;;;5020237;28;19925;-62
2023/06/30 00:06:27;;;;;;;;;;;19.50;99.90;;;;;;5018424;28;19936;-62
2023/06/30 00:08:54;;;;;;;;;;;19.40;99.90;;;;;;5018940;28;20023;-62
2023/06/30 00:11:25;;;;;;;;;;;19.40;99.90;;;;;;5020363;28;19976;-62
2023/06/30 00:13:57;;;;;;;;;;;19.40;99.90;;;;;;5016649;28;19931;-62
2023/06/30 00:16:29;;;;;;;;;;;19.30;99.90;;;;;;5016215;28;19984;-62
2023/06/30 00:19:04;;;;;;;;;;;19.30;99.90;;;;;;5017773;28;19929;-62
2023/06/30 00:21:41;;;;;;;;;;;19.20;99.90;;;;;;5017513;28;20270;-62
2023/06/30 00:24:13;;;;;;;;;;;19.20;99.90;;;;;;5021972;28;19965;-62
2023/06/30 00:26:45;;;;;;;;;;;19.20;99.90;;;;;;5017033;28;20374;-62
2023/06/30 00:29:17;;;;;;;;;;;19.10;99.90;;;;;;5016224;28;19925;-62
2023/06/30 00:31:50;;;;;;;;;;;19.20;99.90;;;;;;5017218;28;19925;-62
2023/06/30 00:34:22;;;;;;;;;;;19.20;99.90;;;;;;5015906;28;19968;-63
2023/06/30 00:36:53;;;;;;;;;;;19.30;99.90;;;;;;5016516;28;19932;-62
2023/06/30 00:39:25;;;;;;;;;;;19.30;99.90;;;;;;5023158;28;20393;-62
2023/06/30 00:41:59;;;;;;;;;;;19.30;99.90;;;;;;5018419;28;19925;-62
2023/06/30 00:44:31;;;;;;;;;;;19.40;99.90;;;;;;5028673;28;19925;-62
2023/06/30 00:47:03;;;;;;;;;;;19.40;99.90;;;;;;5024270;28;19925;-62
2023/06/30 00:49:35;;;;;;;;;;;19.40;99.90;;;;;;5013472;28;20567;-62
2023/06/30 00:52:07;;;;;;;;;;;19.40;99.90;;;;;;5028418;28;20428;-62
2023/06/30 00:54:40;;;;;;;;;;;19.30;99.90;;;;;;5018453;28;19929;-62
2023/06/30 00:57:14;;;;;;;;;;;19.30;99.90;;;;;;5028288;28;20583;-62
2023/06/30 00:59:46;;;;;;;;;;;19.30;99.90;;;;;;5029150;28;19929;-62
2023/06/30 01:02:22;;;;;;;;;;;19.20;99.90;;;;;;5030844;28;19929;-63
2023/06/30 01:04:59;;;;;;;;;;;19.20;99.90;;;;;;5029166;28;19940;-62
2023/06/30 01:07:39;;;;;;;;;;;19.20;99.90;;;;;;5024650;28;19992;-63
2023/06/30 01:10:14;;;;;;;;;;;19.30;99.90;;;;;;5024421;28;19925;-62
2023/06/30 01:12:47;;;;;;;;;;;19.20;99.90;;;;;;5009852;28;19926;-63
2023/06/30 01:15:19;;;;;;;;;;;19.30;99.90;;;;;;5028810;28;20456;-62
2023/06/30 01:17:52;;;;;;;;;;;19.20;99.90;;;;;;5025174;28;19935;-62
2023/06/30 01:20:32;;;;;;;;;;;19.20;99.90;;;;;;5024719;28;20309;-62
2023/06/30 01:23:12;;;;;;;;;;;19.20;99.90;;;;;;5023003;28;20344;-62
2023/06/30 01:25:45;;;;;;;;;;;19.20;99.90;;;;;;5025401;28;19930;-63
2023/06/30 01:28:13;;;;;;;;;;;19.20;99.90;;;;;;5029608;28;20432;-62
2023/06/30 01:30:40;;;;;;;;;;;19.20;99.90;;;;;;5027195;28;19976;-63
2023/06/30 01:33:13;;;;;;;;;;;19.30;99.90;;;;;;5026613;28;19925;-62
2023/06/30 01:35:45;;;;;;;;;;;19.30;99.90;;;;;;5029924;28;19964;-62
2023/06/30 01:38:17;;;;;;;;;;;19.20;99.90;;;;;;5027606;28;19932;-62
2023/06/30 01:40:49;;;;;;;;;;;19.10;99.90;;;;;;5013570;28;19936;-62
2023/06/30 01:43:21;;;;;;;;;;;19.10;99.90;;;;;;5024515;28;19937;-63
2023/06/30 01:45:53;;;;;;;;;;;19.10;99.90;;;;;;5008733;28;20444;-62
2023/06/30 01:48:25;;;;;;;;;;;19.20;99.90;;;;;;5022781;28;19954;-62
2023/06/30 01:50:57;;;;;;;;;;;19.20;99.90;;;;;;5013059;28;19925;-63
2023/06/30 01:53:29;;;;;;;;;;;19.20;99.90;;;;;;5025081;28;19965;-62
2023/06/30 01:56:01;;;;;;;;;;;19.30;99.90;;;;;;5030491;28;20012;-62
2023/06/30 01:58:27;;;;;;;;;;;19.30;99.90;;;;;;5024769;28;20012;-63
2023/06/30 02:00:59;;;;;;;;;;;19.30;99.90;;;;;;5025447;28;20032;-62
2023/06/30 02:03:31;;;;;;;;;;;19.20;99.90;;;;;;5041948;28;19992;-62
2023/06/30 02:06:03;;;;;;;;;;;19.20;99.90;;;;;;5024248;28;20401;-63
2023/06/30 02:08:34;;;;;;;;;;;19.10;99.90;;;;;;5024617;28;19935;-63
2023/06/30 02:11:07;;;;;;;;;;;19.10;99.90;;;;;;5025003;28;19926;-63
2023/06/30 02:13:35;;;;;;;;;;;19.10;99.90;;;;;;5023213;28;20007;-62
2023/06/30 02:16:07;;;;;;;;;;;19.10;99.90;;;;;;5023264;28;19936;-62
2023/06/30 02:18:34;;;;;;;;;;;19.10;99.90;;;;;;5020884;28;19968;-62
2023/06/30 02:21:05;;;;;;;;;;;19.00;99.90;;;;;;5023681;28;19983;-63
2023/06/30 02:23:37;;;;;;;;;;;19.00;99.90;;;;;;5026838;28;19965;-62
2023/06/30 02:26:09;;;;;;;;;;;19.00;99.90;;;;;;5028934;28;19960;-62
2023/06/30 02:28:41;;;;;;;;;;;18.90;99.90;;;;;;5020984;28;20216;-62
2023/06/30 02:31:16;;;;;;;;;;;18.90;99.90;;;;;;5019363;28;20413;-62
2023/06/30 02:33:48;;;;;;;;;;;18.90;99.90;;;;;;5020720;28;19968;-62
2023/06/30 02:36:19;;;;;;;;;;;18.90;99.90;;;;;;5027948;28;20499;-62
2023/06/30 02:38:51;;;;;;;;;;;18.90;99.90;;;;;;5027431;28;19961;-62
2023/06/30 02:41:18;;;;;;;;;;;18.70;99.90;;;;;;5026914;28;20309;-62
2023/06/30 02:43:49;;;;;;;;;;;18.70;99.90;;;;;;5020376;28;19968;-63
2023/06/30 02:46:21;;;;;;;;;;;18.70;99.90;;;;;;5018187;28;20036;-63
2023/06/30 02:48:53;;;;;;;;;;;18.70;99.90;;;;;;5023719;28;19968;-62
2023/06/30 02:51:25;;;;;;;;;;;18.80;99.90;;;;;;5022040;28;19932;-63
2023/06/30 02:53:57;;;;;;;;;;;18.80;99.90;;;;;;5021569;28;19973;-62
2023/06/30 02:56:28;;;;;;;;;;;18.70;99.90;;;;;;5023824;28;20031;-62
2023/06/30 02:59:00;;;;;;;;;;;18.70;99.90;;;;;;5027624;28;19964;-62
2023/06/30 03:01:32;;;;;;;;;;;18.70;99.90;;;;;;5018313;28;19940;-63
2023/06/30 03:04:04;;;;;;;;;;;18.80;99.90;;;;;;5015596;28;19933;-62
2023/06/30 03:06:37;;;;;;;;;;;18.80;99.90;;;;;;5026041;28;20461;-62
2023/06/30 03:09:09;;;;;;;;;;;18.80;99.90;;;;;;5019650;28;19929;-63
2023/06/30 03:11:41;;;;;;;;;;;18.70;99.90;;;;;;5013967;28;19963;-62
2023/06/30 03:14:14;;;;;;;;;;;18.80;99.90;;;;;;5025257;28;19976;-62
2023/06/30 03:16:46;;;;;;;;;;;18.80;99.90;;;;;;5016565;28;19933;-62
2023/06/30 03:19:18;;;;;;;;;;;18.80;99.90;;;;;;5023116;28;20352;-62
2023/06/30 03:21:50;;;;;;;;;;;18.80;99.90;;;;;;5016368;28;20023;-62
2023/06/30 03:24:22;;;;;;;;;;;18.80;99.90;;;;;;5018767;28;19979;-62
2023/06/30 03:26:54;;;;;;;;;;;18.90;99.90;;;;;;5026193;28;19925;-62
2023/06/30 03:29:24;;;;;;;;;;;18.80;99.90;;;;;;5021370;28;19926;-62
2023/06/30 03:31:56;;;;;;;;;;;18.70;99.90;;;;;;5027571;28;19980;-62
2023/06/30 03:34:28;;;;;;;;;;;18.70;99.90;;;;;;5006867;28;19925;-62
2023/06/30 03:37:00;;;;;;;;;;;18.70;99.90;;;;;;5019368;28;19965;-62
2023/06/30 03:39:31;;;;;;;;;;;18.60;99.90;;;;;;5023303;28;19930;-62
2023/06/30 03:42:03;;;;;;;;;;;18.60;99.90;;;;;;5025087;28;19929;-63
2023/06/30 03:44:37;;;;;;;;;;;18.60;99.90;;;;;;5023819;28;20020;-62
2023/06/30 03:47:08;;;;;;;;;;;18.50;99.90;;;;;;5020140;28;19936;-62
2023/06/30 03:49:40;;;;;;;;;;;18.60;99.90;;;;;;5023136;28;19936;-62
2023/06/30 03:52:12;;;;;;;;;;;18.60;99.90;;;;;;5027463;28;20032;-63
2023/06/30 03:54:44;;;;;;;;;;;18.60;99.90;;;;;;5009216;28;20709;-63
2023/06/30 03:57:16;;;;;;;;;;;18.60;99.90;;;;;;5021314;28;20022;-62
2023/06/30 03:59:47;;;;;;;;;;;18.70;99.90;;;;;;5008224;28;19930;-62
2023/06/30 04:02:19;;;;;;;;;;;18.70;99.90;;;;;;5026528;28;19931;-63
2023/06/30 04:04:51;;;;;;;;;;;18.70;99.90;;;;;;5022189;28;19929;-63
2023/06/30 04:07:24;;;;;;;;;;;18.70;99.90;;;;;;5021502;28;19949;-64
2023/06/30 04:09:51;;;;;;;;;;;18.70;99.90;;;;;;5024606;28;20429;-63
2023/06/30 04:12:23;;;;;;;;;;;18.70;99.90;;;;;;5022930;28;19935;-62
2023/06/30 04:14:54;;;;;;;;;;;18.80;99.90;;;;;;5018633;28;20451;-64
2023/06/30 04:17:26;;;;;;;;;;;18.80;99.90;;;;;;5018883;28;19932;-65
2023/06/30 04:19:58;;;;;;;;;;;18.90;99.90;;;;;;5023962;28;19948;-63
2023/06/30 04:22:29;;;;;;;;;;;18.90;99.90;;;;;;5025368;28;19940;-62
2023/06/30 04:24:56;;;;;;;;;;;18.90;99.90;;;;;;5023102;28;20420;-63
2023/06/30 04:27:28;;;;;;;;;;;18.90;99.90;;;;;;5023188;28;20011;-63
2023/06/30 04:30:00;;;;;;;;;;;18.90;99.90;;;;;;5024720;28;20369;-62
2023/06/30 04:32:27;;;;;;;;;;;18.80;99.90;;;;;;5021709;28;19972;-63
2023/06/30 04:34:53;;;;;;;;;;;18.80;99.90;;;;;;5009234;28;19925;-62
2023/06/30 04:37:28;;;;;;;;;;;18.80;99.90;;;;;;5023278;28;19940;-62
2023/06/30 04:40:04;;;;;;;;;;;18.80;99.90;;;;;;5026793;28;19929;-68
2023/06/30 04:42:32;;;;;;;;;;;18.80;99.90;;;;;;5025384;28;19929;-64
2023/06/30 04:45:05;;;;;;;;;;;18.80;99.90;;;;;;5022293;28;21002;-62
2023/06/30 04:47:36;;;;;;;;;;;18.70;99.90;;;;;;5024622;28;19933;-62
2023/06/30 04:50:08;;;;;;;;;;;18.70;99.90;;;;;;5024771;28;20416;-62
2023/06/30 04:52:40;;;;;;;;;;;18.70;99.90;;;;;;5026756;28;19929;-62
2023/06/30 04:55:11;;;;;;;;;;;18.70;99.90;;;;;;5020868;28;19932;-63
2023/06/30 04:57:43;;;;;;;;;;;18.60;99.90;;;;;;5022907;28;19936;-62
2023/06/30 05:00:10;;;;;;;;;;;18.60;99.90;;;;;;5022838;28;19960;-63
2023/06/30 05:02:42;;;;;;;;;;;18.70;99.90;;;;;;5019155;28;19935;-63
2023/06/30 05:05:14;;;;;;;;;;;18.80;99.90;;;;;;5021787;28;19933;-63
2023/06/30 05:07:46;;;;;;;;;;;18.80;99.90;;;;;;5022015;28;20028;-63
2023/06/30 05:10:18;;;;;;;;;;;18.90;99.90;;;;;;5022911;28;19929;-63
2023/06/30 05:12:50;;;;;;;;;;;18.90;99.90;;;;;;5019884;28;20450;-64
2023/06/30 05:15:16;;;;;;;;;;;19.00;99.90;;;;;;5039600;28;19929;-63
2023/06/30 05:17:48;;;;;;;;;;;19.00;99.90;;;;;;5025619;28;20397;-63
2023/06/30 05:20:20;;;;;;;;;;;19.00;99.90;;;;;;5026896;28;19999;-63
2023/06/30 05:22:52;;;;;;;;;;;18.90;99.90;;;;;;5026732;28;20027;-63
2023/06/30 05:25:23;;;;;;;;;;;18.90;99.90;;;;;;5025094;28;20012;-63
2023/06/30 05:27:55;;;;;;;;;;;18.90;99.90;;;;;;5024179;28;20282;-63
2023/06/30 05:30:27;;;;;;;;;;;19.00;99.90;;;;;;5025945;28;19937;-64
2023/06/30 05:32:58;;;;;;;;;;;19.00;99.90;;;;;;5028503;28;19925;-63
2023/06/30 05:35:30;;;;;;;;;;;19.10;99.90;;;;;;5028102;28;20725;-63
2023/06/30 05:38:02;;;;;;;;;;;19.10;99.90;;;;;;5024445;28;19961;-63
2023/06/30 05:40:34;;;;;;;;;;;19.20;99.90;;;;;;5025729;28;19936;-63
2023/06/30 05:43:06;;;;;;;;;;;19.20;99.90;;;;;;5025658;28;20019;-63
2023/06/30 05:45:39;;;;;;;;;;;19.10;99.90;;;;;;5020020;28;19925;-63
2023/06/30 05:48:10;;;;;;;;;;;19.10;99.90;;;;;;5025770;28;20379;-63
2023/06/30 05:50:42;;;;;;;;;;;19.10;99.90;;;;;;5024189;28;19925;-63
2023/06/30 05:53:14;;;;;;;;;;;19.10;99.90;;;;;;5025944;28;19964;-63
2023/06/30 05:55:46;;;;;;;;;;;19.10;99.90;;;;;;5026454;28;20342;-63
2023/06/30 05:58:18;;;;;;;;;;;19.20;99.90;;;;;;5025982;28;19960;-63
2023/06/30 06:00:50;;;;;;;;;;;19.30;99.90;;;;;;4961805;28;1880876;-62
2023/06/30 06:03:21;;;;;;;;;;;19.30;99.90;;;;;;5027478;28;19925;-62
2023/06/30 06:05:53;;;;;;;;;;;19.30;99.90;;;;;;5024806;28;19926;-62
2023/06/30 06:08:25;;;;;;;;;;;19.30;99.90;;;;;;5027118;28;19929;-63
2023/06/30 06:10:56;;;;;;;;;;;19.30;99.90;;;;;;5027405;28;19929;-63
2023/06/30 06:13:33;;;;;;;;;;;19.30;99.90;;;;;;5028938;28;19929;-63
2023/06/30 06:16:06;;;;;;;;;;;19.30;99.90;;;;;;5028996;28;19925;-63
2023/06/30 06:18:37;;;;;;;;;;;19.30;99.90;;;;;;5026449;28;20022;-62
2023/06/30 06:21:09;;;;;;;;;;;19.20;99.90;;;;;;5028148;28;19933;-62
2023/06/30 06:23:36;;;;;;;;;;;19.20;99.90;;;;;;5028264;28;20131;-63
2023/06/30 06:26:08;;;;;;;;;;;19.20;99.90;;;;;;5027575;28;19936;-62
2023/06/30 06:28:39;;;;;;;;;;;19.20;99.90;;;;;;5024879;28;19935;-62
2023/06/30 06:31:11;;;;;;;;;;;19.30;99.90;;;;;;5023978;28;19935;-62
2023/06/30 06:33:43;;;;;;;;;;;19.30;99.90;;;;;;5024274;28;19925;-63
2023/06/30 06:36:15;;;;;;;;;;;19.40;99.90;;;;;;5027016;28;20605;-62
2023/06/30 06:38:46;;;;;;;;;;;19.40;99.90;;;;;;5024455;28;19940;-62
2023/06/30 06:41:13;;;;;;;;;;;19.50;99.90;;;;;;5024755;28;19929;-63
2023/06/30 06:43:45;;;;;;;;;;;19.60;99.90;;;;;;5022101;28;20019;-62
2023/06/30 06:46:16;;;;;;;;;;;19.60;99.90;;;;;;5027527;28;20480;-62
2023/06/30 06:48:48;;;;;;;;;;;19.70;99.90;;;;;;5024922;28;19933;-63
2023/06/30 06:51:20;;;;;;;;;;;19.70;99.90;;;;;;5026160;28;19936;-63
2023/06/30 06:53:52;;;;;;;;;;;19.70;99.90;;;;;;5026083;28;19936;-62
2023/06/30 06:56:24;;;;;;;;;;;19.80;99.90;;;;;;5027401;28;19929;-62
2023/06/30 06:58:55;;;;;;;;;;;19.80;99.90;;;;;;5022184;28;19936;-63
2023/06/30 07:01:27;;;;;;;;;;;19.90;99.90;;;;;;5023954;28;19939;-63
2023/06/30 07:03:59;;;;;;;;;;;19.90;99.90;;;;;;5021694;28;20028;-62
2023/06/30 07:06:30;;;;;;;;;;;19.90;99.90;;;;;;5023104;28;19929;-62
2023/06/30 07:08:57;;;;;;;;;;;19.90;99.90;;;;;;5025846;28;19971;-62
2023/06/30 07:11:29;;;;;;;;;;;19.90;99.90;;;;;;5018462;28;19981;-62
2023/06/30 07:14:00;;;;;;;;;;;20.00;99.90;;;;;;5019243;28;19926;-63
2023/06/30 07:16:32;;;;;;;;;;;19.90;99.90;;;;;;5022609;28;20313;-62
2023/06/30 07:19:04;;;;;;;;;;;19.80;99.90;;;;;;5021688;28;19925;-62
2023/06/30 07:21:36;;;;;;;;;;;19.80;99.90;;;;;;5019591;28;19929;-63
2023/06/30 07:24:07;;;;;;;;;;;19.70;99.90;;;;;;5017819;28;20688;-62
2023/06/30 07:26:39;;;;;;;;;;;19.60;99.90;;;;;;5022961;28;20025;-63
2023/06/30 07:29:11;;;;;;;;;;;19.60;99.90;;;;;;5023388;28;19936;-62
2023/06/30 07:31:43;;;;;;;;;;;19.60;99.90;;;;;;5019641;28;19929;-62
2023/06/30 07:34:18;;;;;;;;;;;19.60;99.90;;;;;;5022743;28;19929;-62
2023/06/30 07:36:51;;;;;;;;;;;19.60;99.90;;;;;;5024145;28;19929;-62
2023/06/30 07:39:22;;;;;;;;;;;19.50;99.90;;;;;;5022166;28;19951;-62
2023/06/30 07:41:54;;;;;;;;;;;19.60;99.90;;;;;;5026095;28;19937;-62
2023/06/30 07:44:26;;;;;;;;;;;19.40;99.90;;;;;;5026144;28;20300;-62
2023/06/30 07:46:58;;;;;;;;;;;19.40;99.90;;;;;;5023486;28;19932;-63
2023/06/30 07:49:29;;;;;;;;;;;19.20;99.90;;;;;;5023530;28;19932;-63
2023/06/30 07:52:01;;;;;;;;;;;19.10;99.90;;;;;;5030449;28;20031;-63
2023/06/30 07:54:33;;;;;;;;;;;19.00;99.90;;;;;;5026471;28;20026;-63
2023/06/30 07:57:05;;;;;;;;;;;19.00;99.90;;;;;;5026459;28;19964;-63
2023/06/30 07:59:33;;;;;;;;;;;18.90;99.90;;;;;;5028270;28;19925;-63
2023/06/30 08:02:06;;;;;;;;;;;18.90;99.90;;;;;;5023603;28;19925;-63
2023/06/30 08:04:41;;;;;;;;;;;19.00;99.90;;;;;;5027291;28;19931;-63
2023/06/30 08:07:13;;;;;;;;;;;19.10;99.90;;;;;;5023018;28;19953;-63
2023/06/30 08:09:44;;;;;;;;;;;19.10;99.90;;;;;;5026562;28;20305;-63
2023/06/30 08:12:16;;;;;;;;;;;19.10;99.90;;;;;;5028744;28;20433;-63
2023/06/30 08:14:48;;;;;;;;;;;19.10;99.90;;;;;;5029003;28;19951;-63
2023/06/30 08:17:20;;;;;;;;;;;19.20;99.90;;;;;;5024701;28;19929;-63
2023/06/30 08:19:52;;;;;;;;;;;19.20;99.90;;;;;;5026867;28;19925;-63
2023/06/30 08:22:23;;;;;;;;;;;19.20;99.90;;;;;;5026080;28;19936;-63
2023/06/30 08:24:50;;;;;;;;;;;19.30;99.90;;;;;;5026414;28;19991;-63
2023/06/30 08:27:22;;;;;;;;;;;19.30;99.90;;;;;;5026993;28;19929;-63
2023/06/30 08:29:54;;;;;;;;;;;19.40;99.90;;;;;;5022879;28;20035;-63
2023/06/30 08:32:25;;;;;;;;;;;19.40;99.90;;;;;;5022627;28;20415;-63
2023/06/30 08:34:57;;;;;;;;;;;19.50;99.90;;;;;;5025420;28;20023;-63
2023/06/30 08:37:29;;;;;;;;;;;19.50;99.90;;;;;;5026816;28;20480;-63
2023/06/30 08:39:56;;;;;;;;;;;19.40;99.90;;;;;;5023941;28;20400;-63
2023/06/30 08:42:28;;;;;;;;;;;19.30;99.90;;;;;;5022866;28;19926;-63
2023/06/30 08:45:00;;;;;;;;;;;19.20;99.90;;;;;;5022549;28;19940;-63
2023/06/30 08:47:34;;;;;;;;;;;19.20;99.90;;;;;;5024871;28;19968;-63
2023/06/30 08:50:06;;;;;;;;;;;19.20;99.90;;;;;;5024112;28;19931;-63
2023/06/30 08:52:34;;;;;;;;;;;19.20;99.90;;;;;;5030771;28;19932;-63
2023/06/30 08:55:08;;;;;;;;;;;19.20;99.90;;;;;;5027619;28;19925;-63
2023/06/30 08:57:41;;;;;;;;;;;19.20;99.90;;;;;;5026966;28;19979;-63
2023/06/30 09:00:08;;;;;;;;;;;19.20;99.90;;;;;;5027554;28;19925;-63
2023/06/30 09:02:40;;;;;;;;;;;19.20;99.90;;;;;;5025587;28;20407;-63
2023/06/30 09:05:12;;;;;;;;;;;19.20;99.90;;;;;;5029139;28;20462;-63
2023/06/30 09:07:46;;;;;;;;;;;19.20;99.90;;;;;;5025331;28;19991;-63
2023/06/30 09:10:18;;;;;;;;;;;19.20;99.90;;;;;;5023673;28;19932;-63
2023/06/30 09:12:51;;;;;;;;;;;19.20;99.90;;;;;;5027892;28;20394;-63
2023/06/30 09:15:23;;;;;;;;;;;19.20;99.90;;;;;;5022636;28;20447;-63
2023/06/30 09:17:50;;;;;;;;;;;19.20;99.90;;;;;;5022509;28;20397;-63
2023/06/30 09:20:22;;;;;;;;;;;19.10;99.90;;;;;;5024615;28;19936;-63
2023/06/30 09:22:54;;;;;;;;;;;19.20;99.90;;;;;;5025858;28;20389;-63
2023/06/30 09:25:26;;;;;;;;;;;19.20;99.90;;;;;;5024766;28;19935;-62
2023/06/30 09:27:57;;;;;;;;;;;19.20;99.90;;;;;;5027041;28;19929;-62
2023/06/30 09:30:38;;;;;;;;;;;19.20;99.90;;;;;;5020436;28;19936;-62
2023/06/30 09:33:12;;;;;;;;;;;19.20;99.90;;;;;;5023917;28;19929;-62
2023/06/30 09:35:45;;;;;;;;;;;19.20;99.90;;;;;;5023322;28;20402;-62
2023/06/30 09:38:18;;;;;;;;;;;19.20;99.90;;;;;;5027928;28;19947;-63
2023/06/30 09:40:45;;;;;;;;;;;19.20;99.90;;;;;;5026370;28;20023;-63
2023/06/30 09:43:21;;;;;;;;;;;19.30;99.90;;;;;;5020000;28;19925;-63
2023/06/30 09:45:59;;;;;;;;;;;19.40;99.90;;;;;;5021826;28;20398;-63
2023/06/30 09:48:31;;;;;;;;;;;19.40;99.90;;;;;;5018863;28;19980;-63
2023/06/30 09:51:03;;;;;;;;;;;19.40;99.90;;;;;;5020346;28;19929;-63
2023/06/30 09:53:39;;;;;;;;;;;19.50;99.90;;;;;;5022888;28;19929;-63
2023/06/30 09:56:18;;;;;;;;;;;19.50;99.90;;;;;;5017932;28;19936;-63
2023/06/30 09:58:54;;;;;;;;;;;19.40;99.90;;;;;;5022977;28;19936;-63
2023/06/30 10:01:21;;;;;;;;;;;19.50;99.90;;;;;;5019254;28;19925;-63
2023/06/30 10:03:54;;;;;;;;;;;19.50;99.90;;;;;;5025841;28;19929;-63
2023/06/30 10:06:27;;;;;;;;;;;19.50;99.90;;;;;;5020578;28;19925;-63
2023/06/30 10:09:01;;;;;;;;;;;19.60;99.90;;;;;;5027070;28;20016;-64
2023/06/30 10:11:35;;;;;;;;;;;19.70;99.90;;;;;;5029463;28;19925;-64
2023/06/30 10:14:02;;;;;;;;;;;19.90;99.90;;;;;;5021733;28;19935;-63
2023/06/30 10:16:34;;;;;;;;;;;20.10;99.90;;;;;;5022568;28;19936;-63
2023/06/30 10:19:02;;;;;;;;;;;20.20;99.90;;;;;;5028725;28;19933;-64
2023/06/30 10:21:34;;;;;;;;;;;20.30;99.90;;;;;;5016516;28;20023;-63
2023/06/30 10:24:07;;;;;;;;;;;20.40;99.90;;;;;;5021606;28;19936;-63
2023/06/30 10:26:34;;;;;;;;;;;20.50;99.90;;;;;;5025925;28;19925;-63
2023/06/30 10:29:06;;;;;;;;;;;20.50;99.90;;;;;;5026804;28;19952;-63
2023/06/30 10:31:39;;;;;;;;;;;20.70;99.90;;;;;;5026106;28;19929;-63
2023/06/30 10:34:11;;;;;;;;;;;20.90;99.90;;;;;;5027571;28;19936;-63
2023/06/30 10:36:44;;;;;;;;;;;21.00;99.90;;;;;;5026213;28;20016;-63
2023/06/30 10:39:16;;;;;;;;;;;21.00;99.90;;;;;;5023895;28;19933;-63
2023/06/30 10:41:49;;;;;;;;;;;20.90;99.90;;;;;;5015986;28;19932;-63
2023/06/30 10:44:20;;;;;;;;;;;20.80;99.90;;;;;;5024064;28;20016;-63
2023/06/30 10:46:55;;;;;;;;;;;20.70;99.90;;;;;;5022888;28;19925;-63
2023/06/30 10:49:33;;;;;;;;;;;20.70;99.90;;;;;;5025270;28;19940;-63
2023/06/30 10:52:23;;;;;;;;;;;20.70;99.90;;;;;;5026132;28;19929;-63
2023/06/30 10:55:03;;;;;;;;;;;20.50;99.90;;;;;;5024150;28;20329;-63
2023/06/30 10:57:36;;;;;;;;;;;20.50;99.90;;;;;;5024892;28;19927;-63
2023/06/30 11:00:13;;;;;;;;;;;20.40;99.90;;;;;;5022482;28;19925;-63
2023/06/30 11:02:47;;;;;;;;;;;20.40;99.90;;;;;;5019128;28;20400;-63
2023/06/30 11:05:20;;;;;;;;;;;20.40;99.90;;;;;;5028102;28;19975;-63
2023/06/30 11:07:52;;;;;;;;;;;20.50;99.90;;;;;;5028415;28;19929;-63
2023/06/30 11:10:31;;;;;;;;;;;20.60;99.90;;;;;;5028741;28;19933;-63
2023/06/30 11:13:05;;;;;;;;;;;20.60;99.90;;;;;;5021813;28;19930;-63
2023/06/30 11:15:45;;;;;;;;;;;20.70;99.90;;;;;;5021361;28;19929;-63
2023/06/30 11:18:23;;;;;;;;;;;20.70;99.90;;;;;;5024070;28;19929;-63
2023/06/30 11:21:02;;;;;;;;;;;20.70;99.90;;;;;;5026577;28;19925;-63
2023/06/30 11:23:32;;;;;;;;;;;20.80;99.90;;;;;;5022859;28;19941;-63
2023/06/30 11:26:11;;;;;;;;;;;20.90;99.90;;;;;;5032549;28;19925;-63
2023/06/30 11:28:49;;;;;;;;;;;21.00;99.90;;;;;;5021173;28;19940;-63
2023/06/30 11:31:21;;;;;;;;;;;21.00;99.90;;;;;;5025626;28;19955;-63
2023/06/30 11:33:53;;;;;;;;;;;20.80;99.90;;;;;;5023410;28;19925;-62
2023/06/30 11:36:29;;;;;;;;;;;20.80;99.90;;;;;;5027009;28;19925;-63
2023/06/30 11:39:01;;;;;;;;;;;20.90;99.90;;;;;;5022405;28;19933;-63
2023/06/30 11:41:33;;;;;;;;;;;20.90;99.90;;;;;;5023796;28;19925;-63
2023/06/30 11:44:05;;;;;;;;;;;20.90;99.90;;;;;;5024464;28;19929;-62
2023/06/30 11:46:37;;;;;;;;;;;20.70;99.90;;;;;;5024895;28;19929;-62
2023/06/30 11:49:09;;;;;;;;;;;20.60;99.90;;;;;;5019053;28;20412;-63
2023/06/30 11:51:41;;;;;;;;;;;20.40;99.90;;;;;;5020748;28;19933;-62
2023/06/30 11:54:16;;;;;;;;;;;20.10;99.90;;;;;;5022704;28;19971;-62
2023/06/30 11:56:48;;;;;;;;;;;19.90;99.90;;;;;;5017551;28;19929;-63
2023/06/30 11:59:20;;;;;;;;;;;19.70;99.90;;;;;;5021550;28;20405;-63
2023/06/30 12:01:52;;;;;;;;;;;19.60;99.90;;;;;;5025160;28;20381;-62
2023/06/30 12:04:25;;;;;;;;;;;19.80;99.90;;;;;;5020886;28;19964;-63
2023/06/30 12:06:56;;;;;;;;;;;19.80;99.90;;;;;;5022621;28;19964;-62
2023/06/30 12:09:28;;;;;;;;;;;19.80;99.90;;;;;;5024886;28;19929;-62
2023/06/30 12:12:00;;;;;;;;;;;19.90;99.90;;;;;;5019735;28;19933;-62
2023/06/30 12:14:32;;;;;;;;;;;20.00;99.90;;;;;;5017745;28;19933;-62
2023/06/30 12:17:03;;;;;;;;;;;20.10;99.90;;;;;;5019628;28;20282;-63
2023/06/30 12:19:35;;;;;;;;;;;20.30;99.90;;;;;;5023353;28;20320;-62
2023/06/30 12:22:07;;;;;;;;;;;20.30;99.90;;;;;;5020257;28;19948;-62
2023/06/30 12:24:42;;;;;;;;;;;20.40;99.90;;;;;;5008514;28;19925;-62
2023/06/30 12:27:13;;;;;;;;;;;20.40;99.90;;;;;;5021136;28;20028;-62
2023/06/30 12:29:46;;;;;;;;;;;20.50;99.90;;;;;;5027021;28;20300;-62
2023/06/30 12:32:17;;;;;;;;;;;20.60;99.90;;;;;;5027488;28;19935;-62
2023/06/30 12:34:47;;;;;;;;;;;20.50;99.90;;;;;;5027030;28;20728;-62
2023/06/30 12:37:19;;;;;;;;;;;20.50;99.90;;;;;;5025451;28;19929;-62
2023/06/30 12:39:52;;;;;;;;;;;20.70;99.90;;;;;;5026243;28;20460;-62
2023/06/30 12:42:32;;;;;;;;;;;20.70;99.90;;;;;;5027305;28;19931;-62
2023/06/30 12:45:00;;;;;;;;;;;21.00;99.90;;;;;;5028117;28;20365;-62
2023/06/30 12:47:32;;;;;;;;;;;21.20;99.90;;;;;;5022350;28;19926;-62
2023/06/30 12:50:04;;;;;;;;;;;21.50;99.90;;;;;;5026554;28;19941;-62
2023/06/30 12:52:36;;;;;;;;;;;21.60;99.90;;;;;;5029233;28;19929;-62
2023/06/30 12:55:09;;;;;;;;;;;21.70;99.90;;;;;;5024406;28;20370;-63
2023/06/30 12:57:41;;;;;;;;;;;21.80;99.90;;;;;;5028433;28;20744;-63
2023/06/30 13:00:13;;;;;;;;;;;22.10;99.90;;;;;;5026464;28;19930;-62
2023/06/30 13:02:47;;;;;;;;;;;22.30;99.90;;;;;;5033490;28;19926;-62
2023/06/30 13:05:19;;;;;;;;;;;22.40;99.90;;;;;;5033131;28;19928;-62
2023/06/30 13:07:51;;;;;;;;;;;22.70;99.90;;;;;;5031632;28;19932;-63
2023/06/30 13:10:23;;;;;;;;;;;23.00;99.90;;;;;;5034440;28;19933;-62
2023/06/30 13:12:55;;;;;;;;;;;23.20;99.90;;;;;;5027049;28;19936;-63
2023/06/30 13:15:27;;;;;;;;;;;23.30;99.90;;;;;;5031680;28;20002;-63
2023/06/30 13:17:59;;;;;;;;;;;23.20;99.90;;;;;;5030559;28;19936;-62
2023/06/30 13:20:31;;;;;;;;;;;23.00;99.90;;;;;;5027949;28;19929;-62
2023/06/30 13:23:03;;;;;;;;;;;23.00;99.90;;;;;;5029421;28;19979;-63
2023/06/30 13:25:35;;;;;;;;;;;23.00;99.90;;;;;;5027524;28;19929;-63
2023/06/30 13:28:07;;;;;;;;;;;22.90;99.90;;;;;;5027965;28;19936;-63
2023/06/30 13:30:41;;;;;;;;;;;22.70;99.90;;;;;;5028868;28;19932;-62
2023/06/30 13:33:08;;;;;;;;;;;22.60;99.90;;;;;;5013472;28;19929;-63
2023/06/30 13:35:40;;;;;;;;;;;22.70;99.90;;;;;;5027657;28;20431;-63
2023/06/30 13:38:12;;;;;;;;;;;22.70;99.90;;;;;;5028648;28;19925;-62
2023/06/30 13:40:44;;;;;;;;;;;22.80;99.90;;;;;;5024899;28;19943;-63
2023/06/30 13:43:16;;;;;;;;;;;22.90;99.90;;;;;;5026238;28;19929;-62
2023/06/30 13:45:48;;;;;;;;;;;22.90;99.90;;;;;;5023655;28;19932;-63
2023/06/30 13:48:20;;;;;;;;;;;22.80;99.90;;;;;;5026045;28;19995;-62
2023/06/30 13:50:51;;;;;;;;;;;22.80;99.90;;;;;;5025295;28;20049;-62
2023/06/30 13:53:24;;;;;;;;;;;22.90;99.90;;;;;;5027587;28;19931;-62
2023/06/30 13:55:56;;;;;;;;;;;22.90;99.90;;;;;;5025225;28;19929;-62
2023/06/30 13:58:28;;;;;;;;;;;22.70;99.90;;;;;;5023971;28;19936;-62
2023/06/30 14:01:00;;;;;;;;;;;22.60;99.90;;;;;;5027370;28;20282;-62
2023/06/30 14:03:33;;;;;;;;;;;22.60;99.90;;;;;;5023311;28;19956;-62
2023/06/30 14:06:05;;;;;;;;;;;22.60;99.90;;;;;;5025613;28;19944;-62
2023/06/30 14:08:37;;;;;;;;;;;22.40;99.90;;;;;;5017474;28;19925;-62
2023/06/30 14:11:08;;;;;;;;;;;22.40;99.90;;;;;;5019853;28;19937;-63
2023/06/30 14:13:41;;;;;;;;;;;22.30;99.90;;;;;;5015554;28;19925;-62
2023/06/30 14:16:12;;;;;;;;;;;22.30;99.90;;;;;;5010502;28;19929;-62
2023/06/30 14:18:44;;;;;;;;;;;22.30;99.90;;;;;;5029871;28;19942;-63
2023/06/30 14:21:16;;;;;;;;;;;22.30;99.90;;;;;;5024133;28;19936;-65
2023/06/30 14:23:48;;;;;;;;;;;22.50;99.90;;;;;;5027135;28;19925;-62
2023/06/30 14:26:20;;;;;;;;;;;22.50;99.90;;;;;;5024936;28;19936;-62
2023/06/30 14:28:52;;;;;;;;;;;22.50;99.90;;;;;;5024590;28;19925;-63
2023/06/30 14:31:24;;;;;;;;;;;22.50;99.90;;;;;;5024785;28;19933;-62
2023/06/30 14:33:55;;;;;;;;;;;22.40;99.90;;;;;;5028660;28;19929;-65
2023/06/30 14:36:27;;;;;;;;;;;22.40;99.90;;;;;;5027898;28;19925;-62
2023/06/30 14:38:59;;;;;;;;;;;22.40;99.90;;;;;;5029958;28;20353;-62
2023/06/30 14:41:31;;;;;;;;;;;22.30;99.90;;;;;;5027675;28;19964;-62
2023/06/30 14:44:03;;;;;;;;;;;22.20;99.90;;;;;;5022202;28;19936;-62